sensor_id;sensor_type;location;lat;lon;timestamp;temperature;humidity
55173;DHT22;41061;52.822;6.860;2023-05-07T00:01:53;13.90;99.90
55173;DHT22;41061;52.822;6.860;2023-05-07T00:04:18;13.90;99.90
55173;DHT22;41061;52.822;6.860;2023-05-07T00:06:44;13.80;99.90
55173;DHT22;41061;52.822;6.860;2023-05-07T00:09:10;13.80;99.90
55173;DHT22;41061;52.822;6.860;2023-05-07T00:11:36;13.80;99.90
55173;DHT22;41061;52.822;6.860;2023-05-07T00:14:02;13.80;99.90
55173;DHT22;41061;52.822;6.860;2023-05-07T00:16:28;13.70;99.90
55173;DHT22;41061;52.822;6.860;2023-05-07T00:18:53;13.70;99.90
55173;DHT22;41061;52.822;6.860;2023-05-07T00:21:19;13.70;99.90
55173;DHT22;41061;52.822;6.860;2023-05-07T00:23:47;13.60;99.90
55173;DHT22;41061;52.822;6.860;2023-05-07T00:26:12;13.60;99.90
55173;DHT22;41061;52.822;6.860;2023-05-07T00:28:38;13.50;99.90
55173;DHT22;41061;52.822;6.860;2023-05-07T00:31:04;13.40;99.90
55173;DHT22;41061;52.822;6.860;2023-05-07T00:33:30;13.40;99.90
55173;DHT22;41061;52.822;6.860;2023-05-07T00:35:56;13.30;99.90
55173;DHT22;41061;52.822;6.860;2023-05-07T00:38:21;13.30;99.90
55173;DHT22;41061;52.822;6.860;2023-05-07T00:40:47;13.30;99.90
55173;DHT22;41061;52.822;6.860;2023-05-07T00:43:13;13.20;99.90
55173;DHT22;41061;52.822;6.860;2023-05-07T00:45:39;13.20;99.90
55173;DHT22;41061;52.822;6.860;2023-05-07T00:48:05;13.20;99.90
55173;DHT22;41061;52.822;6.860;2023-05-07T00:50:32;13.20;99.90
55173;DHT22;41061;52.822;6.860;2023-05-07T00:52:58;13.10;99.90
55173;DHT22;41061;52.822;6.860;2023-05-07T00:55:25;13.00;99.90
55173;DHT22;41061;52.822;6.860;2023-05-07T00:57:52;13.00;99.90
55173;DHT22;41061;52.822;6.860;2023-05-07T01:00:18;12.90;99.90
55173;DHT22;41061;52.822;6.860;2023-05-07T01:02:44;12.90;99.90
55173;DHT22;41061;52.822;6.860;2023-05-07T01:05:12;12.90;99.90
55173;DHT22;41061;52.822;6.860;2023-05-07T01:07:40;12.80;99.90
55173;DHT22;41061;52.822;6.860;2023-05-07T01:10:07;12.80;99.90
55173;DHT22;41061;52.822;6.860;2023-05-07T01:12:35;12.80;99.90
55173;DHT22;41061;52.822;6.860;2023-05-07T01:15:02;12.70;99.90
55173;DHT22;41061;52.822;6.860;2023-05-07T01:17:29;12.70;99.90
55173;DHT22;41061;52.822;6.860;2023-05-07T01:19:55;12.60;99.90
55173;DHT22;41061;52.822;6.860;2023-05-07T01:22:37;12.60;99.90
55173;DHT22;41061;52.822;6.860;2023-05-07T01:25:03;12.50;99.90
55173;DHT22;41061;52.822;6.860;2023-05-07T01:27:29;12.50;99.90
55173;DHT22;41061;52.822;6.860;2023-05-07T01:29:55;12.40;99.90
55173;DHT22;41061;52.822;6.860;2023-05-07T01:32:29;12.40;99.90
55173;DHT22;41061;52.822;6.860;2023-05-07T01:34:57;12.40;99.90
55173;DHT22;41061;52.822;6.860;2023-05-07T01:37:25;12.40;99.90
55173;DHT22;41061;52.822;6.860;2023-05-07T01:39:51;12.40;99.90
55173;DHT22;41061;52.822;6.860;2023-05-07T01:42:17;12.40;99.90
55173;DHT22;41061;52.822;6.860;2023-05-07T01:44:43;12.30;99.90
55173;DHT22;41061;52.822;6.860;2023-05-07T01:47:09;12.30;99.90
55173;DHT22;41061;52.822;6.860;2023-05-07T01:49:35;12.30;99.90
55173;DHT22;41061;52.822;6.860;2023-05-07T01:52:01;12.20;99.90
55173;DHT22;41061;52.822;6.860;2023-05-07T01:54:27;12.20;99.90
55173;DHT22;41061;52.822;6.860;2023-05-07T01:56:54;12.20;99.90
55173;DHT22;41061;52.822;6.860;2023-05-07T01:59:20;12.10;99.90
55173;DHT22;41061;52.822;6.860;2023-05-07T02:01:46;12.10;99.90
55173;DHT22;41061;52.822;6.860;2023-05-07T02:04:13;12.10;99.90
55173;DHT22;41061;52.822;6.860;2023-05-07T02:06:38;12.10;99.90
55173;DHT22;41061;52.822;6.860;2023-05-07T02:09:05;12.10;99.90
55173;DHT22;41061;52.822;6.860;2023-05-07T02:11:30;12.00;99.90
55173;DHT22;41061;52.822;6.860;2023-05-07T02:13:56;12.00;99.90
55173;DHT22;41061;52.822;6.860;2023-05-07T02:16:22;12.10;99.90
55173;DHT22;41061;52.822;6.860;2023-05-07T02:18:49;12.10;99.90
55173;DHT22;41061;52.822;6.860;2023-05-07T02:21:14;12.00;99.90
55173;DHT22;41061;52.822;6.860;2023-05-07T02:23:40;12.10;99.90
55173;DHT22;41061;52.822;6.860;2023-05-07T02:26:06;12.00;99.90
55173;DHT22;41061;52.822;6.860;2023-05-07T02:28:32;12.00;99.90
55173;DHT22;41061;52.822;6.860;2023-05-07T02:30:57;12.00;99.90
55173;DHT22;41061;52.822;6.860;2023-05-07T02:33:26;12.10;99.90
55173;DHT22;41061;52.822;6.860;2023-05-07T02:35:52;12.00;99.90
55173;DHT22;41061;52.822;6.860;2023-05-07T02:38:17;11.80;99.90
55173;DHT22;41061;52.822;6.860;2023-05-07T02:40:43;11.90;99.90
55173;DHT22;41061;52.822;6.860;2023-05-07T02:43:09;12.00;99.90
55173;DHT22;41061;52.822;6.860;2023-05-07T02:45:35;11.80;99.90
55173;DHT22;41061;52.822;6.860;2023-05-07T02:48:03;11.80;99.90
55173;DHT22;41061;52.822;6.860;2023-05-07T02:50:29;11.80;99.90
55173;DHT22;41061;52.822;6.860;2023-05-07T02:52:55;11.70;99.90
55173;DHT22;41061;52.822;6.860;2023-05-07T02:55:21;11.70;99.90
55173;DHT22;41061;52.822;6.860;2023-05-07T02:57:46;11.70;99.90
55173;DHT22;41061;52.822;6.860;2023-05-07T03:00:14;11.70;99.90
55173;DHT22;41061;52.822;6.860;2023-05-07T03:02:40;11.70;99.90
55173;DHT22;41061;52.822;6.860;2023-05-07T03:05:06;11.70;99.90
55173;DHT22;41061;52.822;6.860;2023-05-07T03:07:32;11.70;99.90
55173;DHT22;41061;52.822;6.860;2023-05-07T03:09:57;11.70;99.90
55173;DHT22;41061;52.822;6.860;2023-05-07T03:12:23;11.70;99.90
55173;DHT22;41061;52.822;6.860;2023-05-07T03:14:49;11.70;99.90
55173;DHT22;41061;52.822;6.860;2023-05-07T03:17:15;11.60;99.90
55173;DHT22;41061;52.822;6.860;2023-05-07T03:19:41;11.60;99.90
55173;DHT22;41061;52.822;6.860;2023-05-07T03:22:07;11.60;99.90
55173;DHT22;41061;52.822;6.860;2023-05-07T03:24:33;11.60;99.90
55173;DHT22;41061;52.822;6.860;2023-05-07T03:26:58;11.60;99.90
55173;DHT22;41061;52.822;6.860;2023-05-07T03:29:24;11.60;99.90
55173;DHT22;41061;52.822;6.860;2023-05-07T03:31:50;11.60;99.90
55173;DHT22;41061;52.822;6.860;2023-05-07T03:34:15;11.60;99.90
55173;DHT22;41061;52.822;6.860;2023-05-07T03:36:42;11.60;99.90
55173;DHT22;41061;52.822;6.860;2023-05-07T03:39:08;11.60;99.90
55173;DHT22;41061;52.822;6.860;2023-05-07T03:41:34;11.60;99.90
55173;DHT22;41061;52.822;6.860;2023-05-07T03:44:00;11.50;99.90
55173;DHT22;41061;52.822;6.860;2023-05-07T03:46:25;11.50;99.90
55173;DHT22;41061;52.822;6.860;2023-05-07T03:48:51;11.50;99.90
55173;DHT22;41061;52.822;6.860;2023-05-07T03:51:18;11.50;99.90
55173;DHT22;41061;52.822;6.860;2023-05-07T03:53:43;11.60;99.90
55173;DHT22;41061;52.822;6.860;2023-05-07T03:56:09;11.50;99.90
55173;DHT22;41061;52.822;6.860;2023-05-07T03:58:35;11.50;99.90
55173;DHT22;41061;52.822;6.860;2023-05-07T04:01:00;11.50;99.90
55173;DHT22;41061;52.822;6.860;2023-05-07T04:03:26;11.50;99.90
55173;DHT22;41061;52.822;6.860;2023-05-07T04:05:52;11.50;99.90
55173;DHT22;41061;52.822;6.860;2023-05-07T04:08:17;11.50;99.90
55173;DHT22;41061;52.822;6.860;2023-05-07T04:10:43;11.50;99.90
55173;DHT22;41061;52.822;6.860;2023-05-07T04:13:09;11.50;99.90
55173;DHT22;41061;52.822;6.860;2023-05-07T04:15:36;11.50;99.90
55173;DHT22;41061;52.822;6.860;2023-05-07T04:18:01;11.40;99.90
55173;DHT22;41061;52.822;6.860;2023-05-07T04:20:27;11.40;99.90
55173;DHT22;41061;52.822;6.860;2023-05-07T04:22:53;11.40;99.90
55173;DHT22;41061;52.822;6.860;2023-05-07T04:25:19;11.40;99.90
55173;DHT22;41061;52.822;6.860;2023-05-07T04:27:44;11.40;99.90
55173;DHT22;41061;52.822;6.860;2023-05-07T04:30:10;11.40;99.90
55173;DHT22;41061;52.822;6.860;2023-05-07T04:32:36;11.40;99.90
55173;DHT22;41061;52.822;6.860;2023-05-07T04:35:03;11.40;99.90
55173;DHT22;41061;52.822;6.860;2023-05-07T04:37:28;11.40;99.90
55173;DHT22;41061;52.822;6.860;2023-05-07T04:39:54;11.40;99.90
55173;DHT22;41061;52.822;6.860;2023-05-07T04:42:20;11.40;99.90
55173;DHT22;41061;52.822;6.860;2023-05-07T04:44:45;11.40;99.90
55173;DHT22;41061;52.822;6.860;2023-05-07T04:47:12;11.40;99.90
55173;DHT22;41061;52.822;6.860;2023-05-07T04:49:38;11.40;99.90
55173;DHT22;41061;52.822;6.860;2023-05-07T04:52:04;11.40;99.90
55173;DHT22;41061;52.822;6.860;2023-05-07T04:54:30;11.40;99.90
55173;DHT22;41061;52.822;6.860;2023-05-07T04:56:56;11.50;99.90
55173;DHT22;41061;52.822;6.860;2023-05-07T04:59:21;11.40;99.90
55173;DHT22;41061;52.822;6.860;2023-05-07T05:01:47;11.50;99.90
55173;DHT22;41061;52.822;6.860;2023-05-07T05:04:13;11.50;99.90
55173;DHT22;41061;52.822;6.860;2023-05-07T05:06:39;11.50;99.90
55173;DHT22;41061;52.822;6.860;2023-05-07T05:09:05;11.50;99.90
55173;DHT22;41061;52.822;6.860;2023-05-07T05:11:31;11.50;99.90
55173;DHT22;41061;52.822;6.860;2023-05-07T05:13:59;11.50;99.90
55173;DHT22;41061;52.822;6.860;2023-05-07T05:16:25;11.60;99.90
55173;DHT22;41061;52.822;6.860;2023-05-07T05:18:51;11.60;99.90
55173;DHT22;41061;52.822;6.860;2023-05-07T05:21:17;11.60;99.90
55173;DHT22;41061;52.822;6.860;2023-05-07T05:23:43;11.60;99.90
55173;DHT22;41061;52.822;6.860;2023-05-07T05:26:09;11.60;99.90
55173;DHT22;41061;52.822;6.860;2023-05-07T05:28:35;11.70;99.90
55173;DHT22;41061;52.822;6.860;2023-05-07T05:31:01;11.80;99.90
55173;DHT22;41061;52.822;6.860;2023-05-07T05:33:27;11.80;99.90
55173;DHT22;41061;52.822;6.860;2023-05-07T05:35:53;11.80;99.90
55173;DHT22;41061;52.822;6.860;2023-05-07T05:38:19;11.90;99.90
55173;DHT22;41061;52.822;6.860;2023-05-07T05:40:46;11.90;99.90
55173;DHT22;41061;52.822;6.860;2023-05-07T05:43:13;11.90;99.90
55173;DHT22;41061;52.822;6.860;2023-05-07T05:45:39;11.90;99.90
55173;DHT22;41061;52.822;6.860;2023-05-07T05:48:05;11.90;99.90
55173;DHT22;41061;52.822;6.860;2023-05-07T05:50:31;11.90;99.90
55173;DHT22;41061;52.822;6.860;2023-05-07T05:52:57;12.00;99.90
55173;DHT22;41061;52.822;6.860;2023-05-07T05:55:23;12.00;99.90
55173;DHT22;41061;52.822;6.860;2023-05-07T05:57:49;12.00;99.90
55173;DHT22;41061;52.822;6.860;2023-05-07T06:00:16;12.10;99.90
55173;DHT22;41061;52.822;6.860;2023-05-07T06:02:41;12.10;99.90
55173;DHT22;41061;52.822;6.860;2023-05-07T06:05:08;12.10;99.90
55173;DHT22;41061;52.822;6.860;2023-05-07T06:07:35;12.20;99.90
55173;DHT22;41061;52.822;6.860;2023-05-07T06:10:06;12.20;99.90
55173;DHT22;41061;52.822;6.860;2023-05-07T06:12:32;12.20;99.90
55173;DHT22;41061;52.822;6.860;2023-05-07T06:14:58;12.30;99.90
55173;DHT22;41061;52.822;6.860;2023-05-07T06:17:23;12.30;99.90
55173;DHT22;41061;52.822;6.860;2023-05-07T06:19:49;12.40;99.90
55173;DHT22;41061;52.822;6.860;2023-05-07T06:22:15;12.40;99.90
55173;DHT22;41061;52.822;6.860;2023-05-07T06:24:41;12.40;99.90
55173;DHT22;41061;52.822;6.860;2023-05-07T06:27:06;12.40;99.90
55173;DHT22;41061;52.822;6.860;2023-05-07T06:29:32;12.40;99.90
55173;DHT22;41061;52.822;6.860;2023-05-07T06:32:12;12.40;99.90
55173;DHT22;41061;52.822;6.860;2023-05-07T06:34:40;12.40;99.90
55173;DHT22;41061;52.822;6.860;2023-05-07T06:37:06;12.40;99.90
55173;DHT22;41061;52.822;6.860;2023-05-07T06:39:33;12.40;99.90
55173;DHT22;41061;52.822;6.860;2023-05-07T06:42:00;12.40;99.90
55173;DHT22;41061;52.822;6.860;2023-05-07T06:44:26;12.40;99.90
55173;DHT22;41061;52.822;6.860;2023-05-07T06:46:51;12.40;99.90
55173;DHT22;41061;52.822;6.860;2023-05-07T06:49:17;12.40;99.90
55173;DHT22;41061;52.822;6.860;2023-05-07T06:51:43;12.50;99.90
55173;DHT22;41061;52.822;6.860;2023-05-07T06:54:09;12.50;99.90
55173;DHT22;41061;52.822;6.860;2023-05-07T06:56:35;12.50;99.90
55173;DHT22;41061;52.822;6.860;2023-05-07T06:59:02;12.60;99.90
55173;DHT22;41061;52.822;6.860;2023-05-07T07:01:28;12.60;99.90
55173;DHT22;41061;52.822;6.860;2023-05-07T07:03:54;12.60;99.90
55173;DHT22;41061;52.822;6.860;2023-05-07T07:06:20;12.70;99.90
55173;DHT22;41061;52.822;6.860;2023-05-07T07:08:45;12.80;99.90
55173;DHT22;41061;52.822;6.860;2023-05-07T07:11:11;12.80;99.90
55173;DHT22;41061;52.822;6.860;2023-05-07T07:13:37;12.80;99.90
55173;DHT22;41061;52.822;6.860;2023-05-07T07:16:03;12.90;99.90
55173;DHT22;41061;52.822;6.860;2023-05-07T07:18:29;12.90;99.90
55173;DHT22;41061;52.822;6.860;2023-05-07T07:20:55;12.90;99.90
55173;DHT22;41061;52.822;6.860;2023-05-07T07:23:20;12.90;99.90
55173;DHT22;41061;52.822;6.860;2023-05-07T07:25:46;12.90;99.90
55173;DHT22;41061;52.822;6.860;2023-05-07T07:28:12;12.90;99.90
55173;DHT22;41061;52.822;6.860;2023-05-07T07:30:38;12.90;99.90
55173;DHT22;41061;52.822;6.860;2023-05-07T07:33:04;13.00;99.90
55173;DHT22;41061;52.822;6.860;2023-05-07T07:35:31;13.10;99.90
55173;DHT22;41061;52.822;6.860;2023-05-07T07:37:57;13.10;99.90
55173;DHT22;41061;52.822;6.860;2023-05-07T07:40:23;13.20;99.90
55173;DHT22;41061;52.822;6.860;2023-05-07T07:42:49;13.20;99.90
55173;DHT22;41061;52.822;6.860;2023-05-07T07:45:14;13.30;99.90
55173;DHT22;41061;52.822;6.860;2023-05-07T07:47:40;13.30;99.90
55173;DHT22;41061;52.822;6.860;2023-05-07T07:50:07;13.30;99.90
55173;DHT22;41061;52.822;6.860;2023-05-07T07:52:33;13.40;99.90
55173;DHT22;41061;52.822;6.860;2023-05-07T07:54:59;13.40;99.90
55173;DHT22;41061;52.822;6.860;2023-05-07T07:57:24;13.40;99.90
55173;DHT22;41061;52.822;6.860;2023-05-07T07:59:50;13.30;99.90
55173;DHT22;41061;52.822;6.860;2023-05-07T08:02:16;13.30;99.90
55173;DHT22;41061;52.822;6.860;2023-05-07T08:04:42;13.30;99.90
55173;DHT22;41061;52.822;6.860;2023-05-07T08:07:09;13.40;99.90
55173;DHT22;41061;52.822;6.860;2023-05-07T08:09:36;13.40;99.90
55173;DHT22;41061;52.822;6.860;2023-05-07T08:12:02;13.40;99.90
55173;DHT22;41061;52.822;6.860;2023-05-07T08:14:28;13.40;99.90
55173;DHT22;41061;52.822;6.860;2023-05-07T08:16:54;13.40;99.90
55173;DHT22;41061;52.822;6.860;2023-05-07T08:19:20;13.40;99.90
55173;DHT22;41061;52.822;6.860;2023-05-07T08:21:47;13.40;99.90
55173;DHT22;41061;52.822;6.860;2023-05-07T08:24:17;13.50;99.90
55173;DHT22;41061;52.822;6.860;2023-05-07T08:26:44;13.50;99.90
55173;DHT22;41061;52.822;6.860;2023-05-07T08:29:10;13.60;99.90
55173;DHT22;41061;52.822;6.860;2023-05-07T08:31:36;13.60;99.90
55173;DHT22;41061;52.822;6.860;2023-05-07T08:34:04;13.70;99.90
55173;DHT22;41061;52.822;6.860;2023-05-07T08:36:30;13.80;99.90
55173;DHT22;41061;52.822;6.860;2023-05-07T08:38:56;13.90;99.90
55173;DHT22;41061;52.822;6.860;2023-05-07T08:41:21;14.00;99.90
55173;DHT22;41061;52.822;6.860;2023-05-07T08:43:48;14.10;99.90
55173;DHT22;41061;52.822;6.860;2023-05-07T08:46:20;14.20;99.90
55173;DHT22;41061;52.822;6.860;2023-05-07T08:48:50;14.30;99.90
55173;DHT22;41061;52.822;6.860;2023-05-07T08:51:20;14.50;99.90
55173;DHT22;41061;52.822;6.860;2023-05-07T08:53:48;14.80;99.90
55173;DHT22;41061;52.822;6.860;2023-05-07T08:56:15;15.10;99.90
55173;DHT22;41061;52.822;6.860;2023-05-07T08:58:44;15.30;99.90
55173;DHT22;41061;52.822;6.860;2023-05-07T09:01:13;15.50;99.90
55173;DHT22;41061;52.822;6.860;2023-05-07T09:03:39;15.60;99.90
55173;DHT22;41061;52.822;6.860;2023-05-07T09:06:05;15.70;99.90
55173;DHT22;41061;52.822;6.860;2023-05-07T09:08:33;15.80;99.90
55173;DHT22;41061;52.822;6.860;2023-05-07T09:10:59;15.80;99.90
55173;DHT22;41061;52.822;6.860;2023-05-07T09:13:26;15.90;99.90
55173;DHT22;41061;52.822;6.860;2023-05-07T09:15:52;15.90;99.90
55173;DHT22;41061;52.822;6.860;2023-05-07T09:18:18;16.10;99.90
55173;DHT22;41061;52.822;6.860;2023-05-07T09:20:44;16.20;99.90
55173;DHT22;41061;52.822;6.860;2023-05-07T09:23:12;16.30;99.90
55173;DHT22;41061;52.822;6.860;2023-05-07T09:25:39;16.30;99.90
55173;DHT22;41061;52.822;6.860;2023-05-07T09:28:05;16.40;99.90
55173;DHT22;41061;52.822;6.860;2023-05-07T09:30:35;16.60;99.90
55173;DHT22;41061;52.822;6.860;2023-05-07T09:33:03;16.70;99.90
55173;DHT22;41061;52.822;6.860;2023-05-07T09:35:30;16.70;99.90
55173;DHT22;41061;52.822;6.860;2023-05-07T09:38:00;16.70;99.90
55173;DHT22;41061;52.822;6.860;2023-05-07T09:40:28;16.70;99.90
55173;DHT22;41061;52.822;6.860;2023-05-07T09:42:54;16.60;99.90
55173;DHT22;41061;52.822;6.860;2023-05-07T09:45:29;16.70;99.90
55173;DHT22;41061;52.822;6.860;2023-05-07T09:47:57;16.70;99.90
55173;DHT22;41061;52.822;6.860;2023-05-07T09:50:29;16.70;99.90
55173;DHT22;41061;52.822;6.860;2023-05-07T09:52:55;16.80;99.90
55173;DHT22;41061;52.822;6.860;2023-05-07T09:55:22;16.90;99.90
55173;DHT22;41061;52.822;6.860;2023-05-07T09:57:52;17.00;99.90
55173;DHT22;41061;52.822;6.860;2023-05-07T10:00:22;17.00;99.90
55173;DHT22;41061;52.822;6.860;2023-05-07T10:02:52;17.10;99.90
55173;DHT22;41061;52.822;6.860;2023-05-07T10:05:18;17.20;99.90
55173;DHT22;41061;52.822;6.860;2023-05-07T10:07:46;17.30;99.90
55173;DHT22;41061;52.822;6.860;2023-05-07T10:10:12;17.50;99.90
55173;DHT22;41061;52.822;6.860;2023-05-07T10:12:38;17.60;99.90
55173;DHT22;41061;52.822;6.860;2023-05-07T10:15:10;17.80;99.90
55173;DHT22;41061;52.822;6.860;2023-05-07T10:17:37;18.00;99.90
55173;DHT22;41061;52.822;6.860;2023-05-07T10:20:04;18.10;99.90
55173;DHT22;41061;52.822;6.860;2023-05-07T10:22:40;18.00;99.90
55173;DHT22;41061;52.822;6.860;2023-05-07T10:25:21;17.80;99.90
55173;DHT22;41061;52.822;6.860;2023-05-07T10:27:47;17.70;99.90
55173;DHT22;41061;52.822;6.860;2023-05-07T10:33:17;17.70;99.90
55173;DHT22;41061;52.822;6.860;2023-05-07T10:35:47;17.80;99.90
55173;DHT22;41061;52.822;6.860;2023-05-07T10:38:13;17.90;99.90
55173;DHT22;41061;52.822;6.860;2023-05-07T10:40:39;18.00;99.90
55173;DHT22;41061;52.822;6.860;2023-05-07T10:43:06;18.20;99.90
55173;DHT22;41061;52.822;6.860;2023-05-07T10:45:32;18.50;99.90
55173;DHT22;41061;52.822;6.860;2023-05-07T10:48:13;18.60;99.90
55173;DHT22;41061;52.822;6.860;2023-05-07T10:50:44;18.80;99.90
55173;DHT22;41061;52.822;6.860;2023-05-07T10:58:33;19.00;99.90
55173;DHT22;41061;52.822;6.860;2023-05-07T11:01:02;18.90;99.90
55173;DHT22;41061;52.822;6.860;2023-05-07T11:03:29;18.70;99.90
55173;DHT22;41061;52.822;6.860;2023-05-07T11:06:15;18.50;99.90
55173;DHT22;41061;52.822;6.860;2023-05-07T11:08:57;18.60;99.90
55173;DHT22;41061;52.822;6.860;2023-05-07T11:11:48;18.80;99.90
55173;DHT22;41061;52.822;6.860;2023-05-07T11:17:08;19.50;99.90
55173;DHT22;41061;52.822;6.860;2023-05-07T11:19:54;19.70;99.90
55173;DHT22;41061;52.822;6.860;2023-05-07T11:25:03;19.80;99.90
55173;DHT22;41061;52.822;6.860;2023-05-07T11:27:29;20.00;99.90
55173;DHT22;41061;52.822;6.860;2023-05-07T11:29:56;20.10;99.90
55173;DHT22;41061;52.822;6.860;2023-05-07T11:32:30;20.20;99.90
55173;DHT22;41061;52.822;6.860;2023-05-07T11:34:57;20.20;99.90
55173;DHT22;41061;52.822;6.860;2023-05-07T11:37:24;20.20;99.90
55173;DHT22;41061;52.822;6.860;2023-05-07T11:39:50;20.40;99.90
55173;DHT22;41061;52.822;6.860;2023-05-07T11:42:32;20.40;99.90
55173;DHT22;41061;52.822;6.860;2023-05-07T11:44:58;20.50;99.90
55173;DHT22;41061;52.822;6.860;2023-05-07T11:47:24;20.40;99.90
55173;DHT22;41061;52.822;6.860;2023-05-07T11:49:53;20.50;99.90
55173;DHT22;41061;52.822;6.860;2023-05-07T11:52:20;20.60;99.90
55173;DHT22;41061;52.822;6.860;2023-05-07T11:54:50;20.80;99.90
55173;DHT22;41061;52.822;6.860;2023-05-07T11:57:16;20.80;99.90
55173;DHT22;41061;52.822;6.860;2023-05-07T11:59:42;20.90;99.90
55173;DHT22;41061;52.822;6.860;2023-05-07T12:02:10;21.00;99.90
55173;DHT22;41061;52.822;6.860;2023-05-07T12:04:37;21.10;99.90
55173;DHT22;41061;52.822;6.860;2023-05-07T12:07:03;21.20;99.90
55173;DHT22;41061;52.822;6.860;2023-05-07T12:09:29;21.00;99.90
55173;DHT22;41061;52.822;6.860;2023-05-07T12:11:55;21.00;99.90
55173;DHT22;41061;52.822;6.860;2023-05-07T12:14:21;21.00;99.90
55173;DHT22;41061;52.822;6.860;2023-05-07T12:16:47;20.90;99.90
55173;DHT22;41061;52.822;6.860;2023-05-07T12:19:13;20.80;99.90
55173;DHT22;41061;52.822;6.860;2023-05-07T12:21:40;20.80;99.90
55173;DHT22;41061;52.822;6.860;2023-05-07T12:24:07;20.80;99.90
55173;DHT22;41061;52.822;6.860;2023-05-07T12:26:38;20.70;99.90
55173;DHT22;41061;52.822;6.860;2023-05-07T12:29:04;20.70;99.90
55173;DHT22;41061;52.822;6.860;2023-05-07T12:31:30;20.70;99.90
55173;DHT22;41061;52.822;6.860;2023-05-07T12:33:56;20.70;99.90
55173;DHT22;41061;52.822;6.860;2023-05-07T12:36:21;20.70;99.90
55173;DHT22;41061;52.822;6.860;2023-05-07T12:38:49;20.90;99.90
55173;DHT22;41061;52.822;6.860;2023-05-07T12:41:15;21.10;99.90
55173;DHT22;41061;52.822;6.860;2023-05-07T12:43:44;21.30;99.90
55173;DHT22;41061;52.822;6.860;2023-05-07T12:46:11;21.30;99.90
55173;DHT22;41061;52.822;6.860;2023-05-07T12:48:43;20.80;99.90
55173;DHT22;41061;52.822;6.860;2023-05-07T12:51:11;20.60;99.90
55173;DHT22;41061;52.822;6.860;2023-05-07T12:53:42;20.80;99.90
55173;DHT22;41061;52.822;6.860;2023-05-07T12:56:08;20.40;99.90
55173;DHT22;41061;52.822;6.860;2023-05-07T12:58:35;20.00;99.90
55173;DHT22;41061;52.822;6.860;2023-05-07T13:01:06;20.10;99.90
55173;DHT22;41061;52.822;6.860;2023-05-07T13:03:33;20.10;99.90
55173;DHT22;41061;52.822;6.860;2023-05-07T13:06:01;20.00;99.90
55173;DHT22;41061;52.822;6.860;2023-05-07T13:11:02;19.60;99.90
55173;DHT22;41061;52.822;6.860;2023-05-07T13:13:33;19.40;99.90
55173;DHT22;41061;52.822;6.860;2023-05-07T13:15:59;19.30;99.90
55173;DHT22;41061;52.822;6.860;2023-05-07T13:18:26;19.20;99.90
55173;DHT22;41061;52.822;6.860;2023-05-07T13:20:52;19.10;99.90
55173;DHT22;41061;52.822;6.860;2023-05-07T13:23:19;19.00;99.90
55173;DHT22;41061;52.822;6.860;2023-05-07T13:25:45;19.10;99.90
55173;DHT22;41061;52.822;6.860;2023-05-07T13:28:11;19.20;99.90
55173;DHT22;41061;52.822;6.860;2023-05-07T13:30:37;19.20;99.90
55173;DHT22;41061;52.822;6.860;2023-05-07T13:33:03;19.10;99.90
55173;DHT22;41061;52.822;6.860;2023-05-07T13:35:29;19.00;99.90
55173;DHT22;41061;52.822;6.860;2023-05-07T13:37:55;19.00;99.90
55173;DHT22;41061;52.822;6.860;2023-05-07T13:40:24;19.10;99.90
55173;DHT22;41061;52.822;6.860;2023-05-07T13:42:49;19.10;99.90
55173;DHT22;41061;52.822;6.860;2023-05-07T13:45:17;19.10;99.90
55173;DHT22;41061;52.822;6.860;2023-05-07T13:47:43;19.20;99.90
55173;DHT22;41061;52.822;6.860;2023-05-07T13:50:10;19.40;99.90
55173;DHT22;41061;52.822;6.860;2023-05-07T13:52:37;19.70;99.90
55173;DHT22;41061;52.822;6.860;2023-05-07T13:55:03;19.80;99.90
55173;DHT22;41061;52.822;6.860;2023-05-07T13:57:29;19.90;99.90
55173;DHT22;41061;52.822;6.860;2023-05-07T13:59:55;19.90;99.90
55173;DHT22;41061;52.822;6.860;2023-05-07T14:02:21;19.80;99.90
55173;DHT22;41061;52.822;6.860;2023-05-07T14:04:46;19.60;99.90
55173;DHT22;41061;52.822;6.860;2023-05-07T14:07:12;19.40;99.90
55173;DHT22;41061;52.822;6.860;2023-05-07T14:09:38;19.40;99.90
55173;DHT22;41061;52.822;6.860;2023-05-07T14:12:04;19.40;99.90
55173;DHT22;41061;52.822;6.860;2023-05-07T14:14:30;19.30;99.90
55173;DHT22;41061;52.822;6.860;2023-05-07T14:16:55;19.10;99.90
55173;DHT22;41061;52.822;6.860;2023-05-07T14:19:21;19.00;99.90
55173;DHT22;41061;52.822;6.860;2023-05-07T14:24:16;18.60;99.90
55173;DHT22;41061;52.822;6.860;2023-05-07T14:26:42;18.60;99.90
55173;DHT22;41061;52.822;6.860;2023-05-07T14:29:07;18.60;99.90
55173;DHT22;41061;52.822;6.860;2023-05-07T14:31:33;18.40;99.90
55173;DHT22;41061;52.822;6.860;2023-05-07T14:33:59;18.30;99.90
55173;DHT22;41061;52.822;6.860;2023-05-07T14:36:25;18.20;99.90
55173;DHT22;41061;52.822;6.860;2023-05-07T14:38:55;18.30;99.90
55173;DHT22;41061;52.822;6.860;2023-05-07T14:41:22;18.10;99.90
55173;DHT22;41061;52.822;6.860;2023-05-07T14:43:48;18.10;99.90
55173;DHT22;41061;52.822;6.860;2023-05-07T14:46:19;18.10;99.90
55173;DHT22;41061;52.822;6.860;2023-05-07T14:48:47;18.00;99.90
55173;DHT22;41061;52.822;6.860;2023-05-07T14:51:13;18.00;99.90
55173;DHT22;41061;52.822;6.860;2023-05-07T14:53:40;18.10;99.90
55173;DHT22;41061;52.822;6.860;2023-05-07T14:56:07;18.10;99.90
55173;DHT22;41061;52.822;6.860;2023-05-07T14:58:33;18.00;99.90
55173;DHT22;41061;52.822;6.860;2023-05-07T15:00:59;18.00;99.90
55173;DHT22;41061;52.822;6.860;2023-05-07T15:03:25;17.90;99.90
55173;DHT22;41061;52.822;6.860;2023-05-07T15:05:51;17.90;99.90
55173;DHT22;41061;52.822;6.860;2023-05-07T15:08:17;17.80;99.90
55173;DHT22;41061;52.822;6.860;2023-05-07T15:10:43;17.70;99.90
55173;DHT22;41061;52.822;6.860;2023-05-07T15:13:10;17.70;99.90
55173;DHT22;41061;52.822;6.860;2023-05-07T15:15:39;17.60;99.90
55173;DHT22;41061;52.822;6.860;2023-05-07T15:18:05;17.60;99.90
55173;DHT22;41061;52.822;6.860;2023-05-07T15:20:31;17.60;99.90
55173;DHT22;41061;52.822;6.860;2023-05-07T15:22:57;17.60;99.90
55173;DHT22;41061;52.822;6.860;2023-05-07T15:25:23;17.60;99.90
55173;DHT22;41061;52.822;6.860;2023-05-07T15:27:49;17.70;99.90
55173;DHT22;41061;52.822;6.860;2023-05-07T15:30:15;17.80;99.90
55173;DHT22;41061;52.822;6.860;2023-05-07T15:32:42;17.90;99.90
55173;DHT22;41061;52.822;6.860;2023-05-07T15:35:11;18.10;99.90
55173;DHT22;41061;52.822;6.860;2023-05-07T15:37:37;18.20;99.90
55173;DHT22;41061;52.822;6.860;2023-05-07T15:42:30;18.30;99.90
55173;DHT22;41061;52.822;6.860;2023-05-07T15:44:56;18.40;99.90
55173;DHT22;41061;52.822;6.860;2023-05-07T15:47:21;18.30;99.90
55173;DHT22;41061;52.822;6.860;2023-05-07T15:49:47;18.40;99.90